Time;durP1;ratioP1;P1;durP2;ratioP2;P2;SDS_P1;SDS_P2;PMS_P1;PMS_P2;Temp;Humidity;BMP_temperature;BMP_pressure;BME280_temperature;BME280_humidity;BME280_pressure;Samples;Min_cycle;Max_cycle;Signal;HPM_P1;HPM_P2
2021/10/28 00:13:23;;;;;;;4.25;3.42;;;12.00;86.10;;;;;;5047245;28;20049;-72
2021/10/28 00:15:58;;;;;;;5.75;4.47;;;12.10;86.20;;;;;;5042983;28;20423;-72
2021/10/28 00:21:07;;;;;;;7.80;6.05;;;12.00;86.20;;;;;;5065370;28;20032;-72
2021/10/28 00:23:40;;;;;;;8.93;5.95;;;11.90;86.10;;;;;;5049063;28;20476;-72
2021/10/28 00:26:05;;;;;;;8.45;5.40;;;12.00;86.20;;;;;;5045082;28;20029;-72
2021/10/28 00:28:31;;;;;;;6.03;4.50;;;12.00;86.30;;;;;;5058908;28;20490;-72
2021/10/28 00:30:56;;;;;;;6.00;4.82;;;12.00;86.30;;;;;;5045714;28;20124;-72
2021/10/28 00:33:22;;;;;;;7.03;4.88;;;12.00;86.20;;;;;;5057518;28;20082;-72
2021/10/28 00:35:48;;;;;;;6.97;4.70;;;12.00;86.20;;;;;;5044993;28;20035;-72
2021/10/28 00:38:13;;;;;;;7.32;4.90;;;12.00;86.20;;;;;;5055994;28;20033;-72
2021/10/28 00:40:39;;;;;;;5.70;3.97;;;11.90;86.10;;;;;;5048085;28;20025;-72
2021/10/28 00:43:05;;;;;;;5.80;3.65;;;11.90;86.10;;;;;;5044148;28;20021;-73
2021/10/28 00:45:30;;;;;;;5.88;4.20;;;11.90;86.10;;;;;;5039092;28;20040;-72
2021/10/28 00:47:56;;;;;;;6.82;4.43;;;11.90;86.10;;;;;;5044339;28;20644;-72
2021/10/28 00:50:22;;;;;;;4.88;3.67;;;11.90;86.10;;;;;;5046864;28;20060;-73
2021/10/28 00:52:47;;;;;;;7.80;5.00;;;11.90;86.00;;;;;;5049272;28;20028;-73
2021/10/28 00:55:13;;;;;;;6.50;5.10;;;11.90;86.00;;;;;;5039615;28;20037;-73
2021/10/28 00:57:39;;;;;;;4.95;3.88;;;11.80;86.10;;;;;;5057666;28;20029;-72
2021/10/28 01:00:06;;;;;;;3.65;3.00;;;11.80;86.10;;;;;;5046667;28;20070;-73
2021/10/28 01:02:32;;;;;;;6.30;4.00;;;11.80;86.10;;;;;;5049698;28;20071;-73
2021/10/28 01:04:58;;;;;;;5.47;3.83;;;11.80;86.10;;;;;;5033491;28;20491;-73
2021/10/28 01:07:24;;;;;;;5.28;3.80;;;11.80;86.10;;;;;;5052963;28;20107;-72
2021/10/28 01:09:49;;;;;;;7.85;4.57;;;11.80;86.00;;;;;;5047039;28;20060;-72
2021/10/28 01:12:15;;;;;;;5.28;4.45;;;11.80;86.00;;;;;;5051463;28;20414;-73
2021/10/28 01:14:45;;;;;;;7.32;4.78;;;11.70;86.00;;;;;;5040609;28;20502;-73
2021/10/28 01:17:12;;;;;;;7.53;5.07;;;11.70;86.00;;;;;;5057137;28;20043;-73
2021/10/28 01:19:38;;;;;;;8.65;5.15;;;11.70;86.00;;;;;;5043179;28;20018;-73
2021/10/28 01:22:04;;;;;;;6.88;5.05;;;11.60;86.00;;;;;;5041352;28;20399;-73
2021/10/28 01:24:30;;;;;;;6.95;5.20;;;11.60;86.00;;;;;;5051852;28;20032;-72
2021/10/28 01:27:04;;;;;;;7.13;4.45;;;11.60;86.10;;;;;;5050906;28;20375;-72
2021/10/28 01:29:29;;;;;;;7.63;4.45;;;11.60;86.30;;;;;;5046356;28;20028;-73
2021/10/28 01:31:55;;;;;;;6.57;4.38;;;11.60;86.20;;;;;;5055428;28;20090;-73
2021/10/28 01:34:21;;;;;;;6.78;4.47;;;11.60;86.20;;;;;;5042305;28;20039;-72
2021/10/28 01:36:47;;;;;;;5.35;4.03;;;11.60;86.20;;;;;;5052243;28;20024;-73
2021/10/28 01:39:17;;;;;;;3.72;3.13;;;11.60;86.20;;;;;;5048571;28;20071;-72
2021/10/28 01:41:43;;;;;;;4.22;3.38;;;11.60;86.40;;;;;;5049495;28;20471;-72
2021/10/28 01:44:08;;;;;;;3.83;3.10;;;11.70;86.10;;;;;;5056108;28;20041;-72
2021/10/28 01:46:34;;;;;;;5.93;3.70;;;11.70;86.00;;;;;;5051330;28;20063;-73
2021/10/28 01:49:00;;;;;;;5.47;4.20;;;11.60;85.90;;;;;;5043994;28;20037;-72
2021/10/28 01:51:26;;;;;;;5.15;3.90;;;11.60;85.90;;;;;;5052345;28;20033;-72
2021/10/28 01:53:52;;;;;;;6.60;4.72;;;11.60;85.90;;;;;;5050955;28;20070;-72
2021/10/28 01:56:18;;;;;;;4.88;3.90;;;11.60;85.90;;;;;;5048796;28;20028;-72
2021/10/28 01:58:43;;;;;;;5.63;3.95;;;11.50;85.90;;;;;;5039251;28;20021;-72
2021/10/28 02:01:09;;;;;;;6.03;4.38;;;11.50;86.00;;;;;;5055142;28;20452;-72
2021/10/28 02:03:34;;;;;;;5.40;4.00;;;11.50;85.90;;;;;;5045450;28;20020;-72
2021/10/28 02:06:01;;;;;;;7.15;3.97;;;11.50;85.90;;;;;;5039991;28;20562;-72
2021/10/28 02:08:27;;;;;;;5.25;4.00;;;11.50;85.90;;;;;;5052147;28;20155;-72
2021/10/28 02:10:53;;;;;;;4.30;3.45;;;11.40;85.90;;;;;;5050445;28;20065;-72
2021/10/28 02:13:20;;;;;;;5.22;3.50;;;11.40;85.90;;;;;;5053354;28;20027;-72
2021/10/28 02:15:45;;;;;;;6.10;4.05;;;11.40;85.90;;;;;;5048069;28;20040;-72
2021/10/28 02:18:12;;;;;;;5.07;4.18;;;11.40;85.80;;;;;;5049925;28;20021;-72
2021/10/28 02:20:40;;;;;;;4.45;3.60;;;11.30;85.80;;;;;;5050593;28;20431;-73
2021/10/28 02:23:07;;;;;;;4.35;3.28;;;11.30;85.80;;;;;;5052948;28;20032;-72
2021/10/28 02:25:33;;;;;;;3.78;3.28;;;11.30;85.80;;;;;;5057040;28;20029;-71
2021/10/28 02:27:59;;;;;;;4.03;3.28;;;11.30;85.80;;;;;;5043870;28;20033;-72
2021/10/28 02:30:25;;;;;;;4.47;3.15;;;11.30;85.80;;;;;;5049685;28;20106;-72
2021/10/28 02:32:52;;;;;;;7.07;3.60;;;11.30;85.80;;;;;;5056700;28;20027;-72
2021/10/28 02:35:17;;;;;;;4.90;4.05;;;11.30;85.80;;;;;;5050449;28;20054;-73
2021/10/28 02:37:44;;;;;;;5.57;3.72;;;11.30;85.80;;;;;;5052903;28;20478;-72
2021/10/28 02:40:11;;;;;;;5.50;3.88;;;11.20;85.80;;;;;;5050436;28;20111;-72
2021/10/28 02:42:37;;;;;;;6.38;3.65;;;11.20;86.50;;;;;;5055204;28;20492;-72
2021/10/28 02:45:03;;;;;;;5.97;3.47;;;11.20;85.80;;;;;;5040010;28;20112;-72
2021/10/28 02:47:29;;;;;;;5.75;3.65;;;11.20;85.80;;;;;;5051358;28;20052;-72
2021/10/28 02:49:55;;;;;;;4.70;3.72;;;11.20;85.80;;;;;;5053134;28;20025;-72
2021/10/28 02:52:21;;;;;;;4.65;3.72;;;11.10;85.80;;;;;;5046245;28;20033;-72
2021/10/28 02:54:46;;;;;;;4.15;3.35;;;11.10;85.80;;;;;;5050915;28;20028;-72
2021/10/28 02:57:12;;;;;;;4.38;3.55;;;11.10;85.80;;;;;;5059600;28;20487;-71
2021/10/28 02:59:37;;;;;;;4.88;3.88;;;11.10;85.80;;;;;;5049634;28;20021;-72
2021/10/28 03:02:04;;;;;;;5.80;3.70;;;11.00;85.60;;;;;;5053312;28;20025;-72
2021/10/28 03:04:30;;;;;;;5.68;3.92;;;11.00;85.70;;;;;;5039571;28;20033;-72
2021/10/28 03:06:56;;;;;;;4.63;3.72;;;11.00;85.70;;;;;;5059844;28;20116;-72
2021/10/28 03:09:24;;;;;;;6.10;4.18;;;11.00;85.80;;;;;;5053804;28;20070;-73
2021/10/28 03:11:53;;;;;;;6.85;4.75;;;10.90;85.80;;;;;;5039804;28;20514;-73
2021/10/28 03:14:23;;;;;;;5.18;3.75;;;10.90;85.80;;;;;;5049475;28;20028;-73
2021/10/28 03:16:57;;;;;;;5.43;3.85;;;10.90;85.80;;;;;;5044480;28;20026;-72
2021/10/28 03:27:37;;;;;;;4.60;3.35;;;10.80;85.90;;;;;;5049566;28;20529;-72
2021/10/28 03:30:02;;;;;;;6.43;4.47;;;10.70;85.90;;;;;;5056782;28;20179;-72
2021/10/28 03:32:29;;;;;;;4.45;3.53;;;10.70;85.90;;;;;;5045370;28;20112;-72
2021/10/28 03:34:55;;;;;;;5.88;4.75;;;10.60;86.00;;;;;;5058119;28;20025;-72
2021/10/28 03:37:35;;;;;;;5.65;4.60;;;10.70;86.20;;;;;;5060632;28;20023;-71
2021/10/28 04:31:18;;;;;;;10.48;7.28;;;10.30;86.80;;;;;;5044419;28;20052;-71
2021/10/28 04:33:44;;;;;;;10.15;6.70;;;10.30;86.80;;;;;;5040213;28;20025;-71
2021/10/28 04:36:11;;;;;;;8.10;5.45;;;10.30;86.90;;;;;;5048456;28;20020;-72
2021/10/28 04:38:37;;;;;;;8.05;6.03;;;10.30;86.90;;;;;;5048586;28;20025;-72
2021/10/28 04:41:03;;;;;;;8.70;5.93;;;10.30;86.90;;;;;;5050544;28;20155;-72
2021/10/28 04:43:28;;;;;;;8.63;6.53;;;10.30;86.90;;;;;;5035272;28;20033;-71
2021/10/28 04:45:54;;;;;;;12.23;7.03;;;10.30;87.00;;;;;;5046945;28;20464;-71
2021/10/28 04:48:19;;;;;;;11.07;7.85;;;10.20;87.00;;;;;;5052687;28;20017;-71
2021/10/28 04:50:45;;;;;;;9.60;6.10;;;10.30;87.10;;;;;;5050921;28;20037;-72
2021/10/28 04:53:11;;;;;;;9.48;6.05;;;10.30;87.10;;;;;;5051370;28;20959;-73
2021/10/28 04:55:36;;;;;;;8.40;5.90;;;10.30;87.10;;;;;;5034007;28;20093;-73
2021/10/28 04:58:04;;;;;;;11.38;6.82;;;10.30;87.10;;;;;;5059491;28;20387;-72
2021/10/28 05:00:31;;;;;;;7.47;5.60;;;10.30;87.00;;;;;;5045026;28;20029;-72
2021/10/28 05:02:56;;;;;;;7.57;5.55;;;10.40;87.70;;;;;;5057023;28;20021;-71
2021/10/28 05:05:22;;;;;;;7.57;5.07;;;10.30;86.90;;;;;;5054150;28;20029;-71
2021/10/28 05:07:48;;;;;;;8.45;5.85;;;10.40;86.90;;;;;;5048593;28;20092;-71
2021/10/28 05:10:14;;;;;;;6.13;4.63;;;10.40;86.80;;;;;;5051857;28;20107;-72
2021/10/28 05:12:40;;;;;;;8.88;6.43;;;10.40;86.80;;;;;;5048853;28;20076;-72
2021/10/28 05:15:05;;;;;;;8.70;5.10;;;10.30;86.80;;;;;;5045007;28;20033;-72
2021/10/28 05:17:31;;;;;;;8.05;5.90;;;10.30;87.00;;;;;;5055560;28;20029;-73
2021/10/28 05:19:57;;;;;;;9.05;5.45;;;10.30;87.00;;;;;;5039453;28;20559;-74
2021/10/28 05:22:22;;;;;;;7.15;5.20;;;10.20;87.00;;;;;;5060065;28;20029;-74
2021/10/28 05:24:48;;;;;;;7.20;4.68;;;10.20;87.10;;;;;;5045013;28;20035;-74
2021/10/28 05:27:14;;;;;;;7.85;5.28;;;10.30;87.00;;;;;;5045115;28;20034;-72
2021/10/28 05:29:40;;;;;;;7.55;5.43;;;10.20;86.80;;;;;;5044430;28;20025;-72
2021/10/28 05:32:06;;;;;;;6.63;4.38;;;10.30;86.80;;;;;;5045847;28;20029;-72
2021/10/28 05:34:31;;;;;;;8.18;5.95;;;10.20;86.70;;;;;;5043639;28;20041;-72
2021/10/28 05:36:57;;;;;;;10.70;6.78;;;10.20;86.70;;;;;;5044995;28;20108;-72
2021/10/28 05:39:22;;;;;;;8.35;6.45;;;10.20;86.80;;;;;;5047804;28;20025;-72
2021/10/28 05:41:48;;;;;;;9.10;6.00;;;10.20;86.80;;;;;;5048993;28;20025;-72
2021/10/28 05:44:14;;;;;;;11.40;8.10;;;10.10;86.80;;;;;;5038455;28;20025;-72
2021/10/28 05:46:40;;;;;;;11.30;7.63;;;10.10;86.80;;;;;;5046859;28;20079;-72
2021/10/28 05:49:05;;;;;;;12.00;8.23;;;10.00;86.90;;;;;;5047511;28;20052;-72
2021/10/28 05:51:31;;;;;;;11.25;6.88;;;9.90;87.10;;;;;;5051910;28;20037;-72
2021/10/28 05:53:56;;;;;;;9.25;7.13;;;9.90;87.30;;;;;;5045588;28;20017;-73
2021/10/28 05:56:22;;;;;;;11.32;7.03;;;9.80;87.40;;;;;;5039675;28;20156;-73
2021/10/28 05:58:48;;;;;;;10.80;7.00;;;9.80;87.60;;;;;;5046838;28;20020;-73
2021/10/28 06:01:13;;;;;;;10.07;7.15;;;9.80;87.70;;;;;;5051119;28;20099;-73
2021/10/28 06:03:39;;;;;;;9.52;7.00;;;9.80;87.70;;;;;;5043308;28;20017;-73
2021/10/28 06:06:05;;;;;;;9.30;6.50;;;9.80;87.70;;;;;;5045435;28;20033;-74
2021/10/28 06:08:31;;;;;;;9.70;6.72;;;9.80;87.60;;;;;;5041043;28;20021;-75
2021/10/28 06:10:57;;;;;;;6.60;4.95;;;9.80;87.50;;;;;;5051873;28;20068;-75
2021/10/28 06:13:24;;;;;;;10.85;7.20;;;9.90;87.50;;;;;;5049370;28;20049;-74
2021/10/28 06:15:49;;;;;;;8.43;6.50;;;9.80;87.50;;;;;;5044439;28;20029;-73
2021/10/28 06:20:45;;;;;;;9.48;6.68;;;9.80;87.40;;;;;;5045488;28;20033;-74
2021/10/28 06:23:11;;;;;;;11.80;6.50;;;9.80;87.40;;;;;;5064614;28;20064;-74
2021/10/28 06:25:36;;;;;;;7.68;5.30;;;9.80;87.40;;;;;;5048131;28;20021;-75
2021/10/28 06:28:03;;;;;;;6.82;4.88;;;9.80;87.40;;;;;;5047605;28;20040;-74
2021/10/28 06:30:29;;;;;;;6.85;5.18;;;9.90;87.40;;;;;;5052420;28;20051;-73
2021/10/28 06:33:02;;;;;;;7.45;5.57;;;9.90;87.40;;;;;;5049160;28;20044;-73
2021/10/28 06:35:27;;;;;;;7.32;5.00;;;9.90;87.30;;;;;;5040812;28;20116;-73
2021/10/28 06:37:55;;;;;;;7.45;5.00;;;9.90;87.20;;;;;;5047131;28;20060;-73
2021/10/28 06:40:23;;;;;;;7.43;4.60;;;9.90;87.10;;;;;;5046190;28;20021;-73
2021/10/28 06:42:49;;;;;;;6.90;4.93;;;9.90;87.10;;;;;;5050048;28;20052;-74
2021/10/28 06:45:16;;;;;;;6.35;4.00;;;9.90;87.00;;;;;;5048345;28;20055;-74
2021/10/28 06:47:42;;;;;;;7.70;5.43;;;10.00;87.00;;;;;;5048849;28;20038;-74
2021/10/28 06:50:12;;;;;;;8.85;5.55;;;10.00;86.80;;;;;;5043620;28;20029;-73
2021/10/28 06:52:52;;;;;;;11.35;7.82;;;10.00;86.70;;;;;;5048273;28;20037;-73
2021/10/28 06:55:35;;;;;;;9.95;6.30;;;10.00;86.70;;;;;;5041826;28;20369;-73
2021/10/28 07:03:32;;;;;;;8.50;5.57;;;10.10;86.50;;;;;;5046732;28;20493;-73
2021/10/28 07:06:03;;;;;;;6.30;4.93;;;10.10;86.50;;;;;;5041223;28;20059;-73
2021/10/28 07:08:29;;;;;;;9.93;5.93;;;10.20;86.40;;;;;;5044404;28;20113;-74
2021/10/28 07:10:57;;;;;;;6.97;5.20;;;10.20;86.30;;;;;;5046051;28;20108;-76
2021/10/28 07:13:33;;;;;;;9.05;5.72;;;10.20;86.20;;;;;;5040363;28;20028;-74
2021/10/28 07:18:57;;;;;;;8.13;5.45;;;10.30;86.00;;;;;;5040529;28;20134;-75
2021/10/28 07:24:17;;;;;;;8.98;5.28;;;10.40;86.00;;;;;;5044494;28;20037;-75
2021/10/28 07:26:55;;;;;;;7.43;5.53;;;10.40;86.00;;;;;;5045226;28;20062;-73
2021/10/28 07:59:26;;;;;;;7.82;5.65;;;10.90;85.00;;;;;;5042163;28;20025;-74
2021/10/28 08:15:27;;;;;;;10.82;7.50;;;11.00;84.70;;;;;;5049632;28;20060;-74
2021/10/28 08:20:45;;;;;;;12.68;8.43;;;11.10;84.80;;;;;;5046580;28;20192;-74
2021/10/28 08:28:51;;;;;;;12.07;8.25;;;11.20;84.60;;;;;;5048394;28;20076;-75
2021/10/28 08:31:20;;;;;;;12.85;8.15;;;11.20;85.20;;;;;;5050912;28;20044;-77
2021/10/28 08:33:49;;;;;;;13.63;9.38;;;11.20;84.50;;;;;;5043849;28;20373;-75
2021/10/28 08:36:28;;;;;;;12.75;8.95;;;11.20;84.60;;;;;;5043568;28;20496;-76
2021/10/28 08:38:56;;;;;;;10.88;6.60;;;11.30;84.70;;;;;;5047775;28;20029;-76
2021/10/28 08:41:23;;;;;;;12.77;8.75;;;11.30;84.70;;;;;;5050008;28;20040;-76
2021/10/28 08:43:51;;;;;;;15.15;9.88;;;11.40;84.70;;;;;;5047734;28;20032;-77
2021/10/28 08:46:17;;;;;;;12.57;9.27;;;11.40;84.70;;;;;;5042376;28;20063;-78
2021/10/28 08:48:51;;;;;;;15.23;9.25;;;11.40;84.60;;;;;;5036791;28;20380;-76
2021/10/28 09:24:38;;;;;;;13.32;8.90;;;12.00;84.10;;;;;;5086370;28;20046;-76
2021/10/28 09:27:20;;;;;;;14.98;10.20;;;12.00;83.90;;;;;;5081449;28;20028;-75
2021/10/28 09:32:35;;;;;;;15.00;9.90;;;12.20;83.70;;;;;;5088154;28;19916;-74
2021/10/28 09:44:01;;;;;;;9.32;6.93;;;12.40;83.30;;;;;;5088691;28;20413;-74
2021/10/28 09:52:04;;;;;;;11.93;8.02;;;12.70;82.70;;;;;;5086806;28;20046;-80
2021/10/28 09:57:51;;;;;;;15.75;11.07;;;12.80;82.30;;;;;;5083621;28;20036;-75
2021/10/28 10:00:19;;;;;;;12.88;9.05;;;12.90;82.30;;;;;;5089060;28;20085;-75
2021/10/28 10:02:53;;;;;;;13.25;9.90;;;12.90;82.20;;;;;;5081856;28;20027;-75
2021/10/28 10:05:24;;;;;;;11.40;7.97;;;13.00;82.00;;;;;;5081024;28;20478;-74
2021/10/28 10:07:55;;;;;;;12.95;9.27;;;13.10;82.00;;;;;;5086152;28;20046;-75
2021/10/28 10:10:23;;;;;;;11.18;7.80;;;13.20;81.80;;;;;;5078428;28;20023;-75
2021/10/28 10:12:49;;;;;;;14.02;9.82;;;13.20;81.60;;;;;;5081771;28;20654;-75
2021/10/28 10:15:15;;;;;;;9.52;7.15;;;13.30;81.20;;;;;;5082447;28;20035;-75
2021/10/28 10:17:48;;;;;;;15.77;11.25;;;13.30;81.30;;;;;;5079921;28;20016;-76
2021/10/28 10:20:15;;;;;;;11.73;7.93;;;13.40;80.90;;;;;;5082811;28;20032;-78
2021/10/28 10:22:57;;;;;;;10.00;7.43;;;13.50;80.80;;;;;;5076370;28;20100;-77
2021/10/28 10:26:03;;;;;;;15.75;11.50;;;13.50;80.60;;;;;;5064960;28;20017;-78
2021/10/28 10:29:18;;;;;;;13.73;9.48;;;13.50;80.20;;;;;;5070093;28;20023;-78
2021/10/28 11:21:01;;;;;;;13.35;9.10;;;14.60;76.40;;;;;;5064416;28;20106;-79
2021/10/28 11:23:19;;;;;;;14.00;9.77;;;14.70;76.40;;;;;;5074323;28;20036;-77
2021/10/28 12:16:20;;;;;;;16.02;11.23;;;16.30;71.60;;;;;;5068906;28;20035;-77
2021/10/28 12:52:51;;;;;;;15.48;11.80;;;17.40;68.90;;;;;;5066333;28;20094;-76
2021/10/28 12:55:42;;;;;;;16.75;11.65;;;17.40;68.20;;;;;;5057171;28;20016;-78
2021/10/28 13:03:55;;;;;;;14.70;10.55;;;17.40;67.80;;;;;;5059815;28;20106;-78
2021/10/28 13:06:42;;;;;;;15.25;11.15;;;17.40;67.70;;;;;;5073633;28;20021;-78
2021/10/28 13:34:55;;;;;;;9.60;6.45;;;18.00;66.50;;;;;;5061041;28;20039;-78
2021/10/28 13:55:38;;;;;;;8.55;5.10;;;18.10;65.20;;;;;;5063573;28;20479;-78
2021/10/28 13:58:29;;;;;;;6.38;4.68;;;18.20;65.20;;;;;;5067397;28;20024;-75
2021/10/28 14:30:30;;;;;;;7.70;5.57;;;17.70;63.40;;;;;;5064127;28;20538;-75
2021/10/28 14:36:10;;;;;;;5.45;3.60;;;17.50;63.50;;;;;;5064517;28;20039;-76
2021/10/28 14:38:41;;;;;;;4.68;3.60;;;17.60;64.00;;;;;;5060688;28;20035;-77
2021/10/28 15:27:49;;;;;;;4.45;3.20;;;17.00;66.20;;;;;;5059085;28;20043;-80
2021/10/28 15:37:56;;;;;;;3.78;2.92;;;16.80;66.90;;;;;;5066289;28;20040;-79
2021/10/28 15:57:05;;;;;;;4.60;3.40;;;16.40;68.60;;;;;;5065170;28;20039;-80
2021/10/28 16:24:09;;;;;;;5.72;3.80;;;15.80;71.70;;;;;;5072992;28;20083;-81
2021/10/28 16:26:35;;;;;;;5.95;4.20;;;15.80;71.90;;;;;;5078739;28;20025;-81
2021/10/28 16:29:06;;;;;;;7.03;4.43;;;15.70;72.00;;;;;;5065118;28;20041;-81
2021/10/28 16:31:31;;;;;;;4.97;4.00;;;15.70;72.20;;;;;;5064575;28;20488;-81
2021/10/28 16:33:57;;;;;;;7.13;5.05;;;15.60;72.30;;;;;;5059847;28;20024;-81
2021/10/28 16:36:24;;;;;;;5.85;3.80;;;15.60;72.50;;;;;;5074660;28;20502;-81
2021/10/28 16:38:50;;;;;;;5.70;3.85;;;15.60;72.70;;;;;;5072308;28;20032;-80
2021/10/28 16:41:16;;;;;;;5.20;3.53;;;15.50;72.90;;;;;;5063319;28;20020;-81
2021/10/28 16:43:41;;;;;;;6.88;4.85;;;15.40;73.20;;;;;;5066329;28;20368;-81
2021/10/28 16:46:08;;;;;;;4.40;3.58;;;15.40;73.30;;;;;;5062056;28;20047;-81
2021/10/28 16:48:35;;;;;;;5.00;3.63;;;15.40;73.40;;;;;;5067880;28;20028;-82
2021/10/28 16:51:01;;;;;;;3.92;3.25;;;15.30;73.50;;;;;;5065043;28;20025;-82
2021/10/28 16:53:26;;;;;;;5.72;4.20;;;15.30;73.70;;;;;;5067008;28;20035;-82
2021/10/28 16:55:52;;;;;;;5.22;3.63;;;15.20;73.90;;;;;;5070229;28;20020;-82
2021/10/28 16:58:18;;;;;;;4.80;3.58;;;15.20;74.10;;;;;;5066184;28;20043;-82
2021/10/28 17:00:46;;;;;;;4.25;3.20;;;15.20;74.10;;;;;;5060753;28;20025;-81
2021/10/28 17:03:12;;;;;;;5.60;3.72;;;15.20;74.20;;;;;;5057297;28;20104;-81
2021/10/28 17:05:37;;;;;;;4.43;3.63;;;15.20;74.30;;;;;;5062855;28;20054;-81
2021/10/28 17:08:05;;;;;;;4.90;3.72;;;15.10;74.30;;;;;;5062630;28;20036;-82
2021/10/28 17:10:31;;;;;;;4.60;3.10;;;15.10;74.40;;;;;;5060241;28;20046;-80
2021/10/28 17:12:57;;;;;;;4.55;3.55;;;15.10;74.50;;;;;;5067383;28;20036;-80
2021/10/28 17:15:23;;;;;;;7.70;4.97;;;15.10;74.60;;;;;;5064351;28;20442;-81
2021/10/28 17:17:49;;;;;;;6.10;4.75;;;15.00;74.90;;;;;;5074445;28;20026;-80
2021/10/28 17:20:14;;;;;;;5.30;4.20;;;15.00;75.00;;;;;;5066973;28;20069;-80
2021/10/28 17:22:41;;;;;;;5.85;4.43;;;14.90;75.10;;;;;;5068007;28;20021;-80
2021/10/28 17:25:09;;;;;;;7.32;5.55;;;14.90;75.30;;;;;;5067630;28;20016;-78
2021/10/28 17:27:35;;;;;;;6.78;5.07;;;14.80;75.70;;;;;;5061307;28;20044;-80
2021/10/28 17:30:04;;;;;;;6.68;4.25;;;14.80;76.50;;;;;;5063661;28;20027;-80
2021/10/28 17:32:29;;;;;;;8.15;4.80;;;14.70;76.10;;;;;;5066519;28;20379;-80
2021/10/28 17:34:57;;;;;;;4.97;3.97;;;14.70;76.20;;;;;;5066555;28;20074;-79
2021/10/28 17:37:23;;;;;;;7.25;4.72;;;14.70;76.30;;;;;;5073497;28;20028;-80
2021/10/28 17:39:48;;;;;;;5.55;3.88;;;14.70;76.30;;;;;;5071857;28;20024;-80
2021/10/28 17:42:15;;;;;;;6.75;4.53;;;14.70;76.30;;;;;;5068366;28;20404;-80
2021/10/28 17:44:47;;;;;;;8.02;5.95;;;14.70;76.40;;;;;;5066883;28;20042;-80
2021/10/28 17:47:13;;;;;;;8.63;6.50;;;14.70;76.50;;;;;;5068727;28;20094;-80
2021/10/28 17:49:38;;;;;;;7.53;5.70;;;14.60;76.70;;;;;;5067018;28;20063;-80
2021/10/28 17:52:07;;;;;;;7.72;5.90;;;14.60;76.90;;;;;;5066176;28;20090;-80
2021/10/28 17:54:33;;;;;;;14.05;5.72;;;14.50;77.00;;;;;;5062809;28;20079;-80
2021/10/28 17:56:59;;;;;;;7.72;6.20;;;14.50;77.30;;;;;;5074073;28;20031;-79
2021/10/28 17:59:25;;;;;;;8.48;6.07;;;14.40;77.50;;;;;;5065612;28;20035;-80
2021/10/28 18:01:50;;;;;;;9.13;6.75;;;14.40;77.80;;;;;;5065805;28;20021;-79
2021/10/28 18:04:17;;;;;;;10.85;6.65;;;14.30;78.10;;;;;;5065745;28;20032;-80
2021/10/28 18:06:43;;;;;;;10.13;7.60;;;14.20;78.40;;;;;;5078814;28;20024;-80
2021/10/28 18:09:09;;;;;;;6.85;5.72;;;14.20;78.50;;;;;;5065494;28;20031;-80
2021/10/28 18:11:35;;;;;;;10.10;7.18;;;14.20;78.50;;;;;;5064251;28;20027;-80
2021/10/28 18:14:01;;;;;;;9.20;7.07;;;14.10;78.60;;;;;;5063461;28;20029;-80
2021/10/28 18:16:27;;;;;;;7.40;5.53;;;14.10;78.80;;;;;;5067411;28;20024;-79
2021/10/28 18:18:58;;;;;;;8.05;5.97;;;14.10;78.80;;;;;;5054456;28;20036;-81
2021/10/28 18:21:25;;;;;;;10.45;6.82;;;14.10;78.80;;;;;;5070791;28;20025;-79
2021/10/28 18:23:53;;;;;;;8.50;6.15;;;14.10;78.80;;;;;;5067656;28;20036;-80
2021/10/28 18:26:20;;;;;;;9.57;7.00;;;14.10;78.90;;;;;;5070624;28;20028;-79
2021/10/28 18:28:47;;;;;;;10.40;6.95;;;14.00;79.00;;;;;;5059511;28;20413;-79
2021/10/28 18:31:12;;;;;;;9.07;6.15;;;14.00;79.20;;;;;;5063672;28;20036;-80
2021/10/28 18:33:39;;;;;;;8.35;6.65;;;13.90;79.20;;;;;;5072585;28;20028;-80
2021/10/28 18:36:07;;;;;;;9.30;6.13;;;13.90;79.30;;;;;;5066803;28;20028;-79
2021/10/28 18:38:33;;;;;;;6.80;5.57;;;13.90;79.30;;;;;;5063791;28;20028;-79
2021/10/28 18:40:59;;;;;;;8.27;6.32;;;13.90;79.30;;;;;;5062692;28;20024;-78
2021/10/28 18:43:25;;;;;;;7.45;5.97;;;13.80;79.30;;;;;;5060530;28;20024;-78
2021/10/28 18:45:51;;;;;;;10.95;6.75;;;13.80;79.40;;;;;;5066202;28;20051;-79
2021/10/28 18:48:16;;;;;;;8.27;6.50;;;13.80;79.30;;;;;;5065123;28;20498;-79
2021/10/28 18:50:42;;;;;;;11.30;8.02;;;13.80;79.40;;;;;;5070707;28;20024;-79
2021/10/28 18:53:09;;;;;;;9.65;6.63;;;13.70;79.50;;;;;;5070725;28;20036;-80
2021/10/28 18:55:36;;;;;;;11.85;8.23;;;13.70;79.50;;;;;;5070475;28;20055;-77
2021/10/28 18:58:02;;;;;;;12.02;9.02;;;13.70;79.70;;;;;;5064322;28;20028;-79
2021/10/28 19:00:28;;;;;;;8.88;6.82;;;13.60;79.80;;;;;;5068894;28;20100;-79
2021/10/28 19:02:53;;;;;;;11.68;7.47;;;13.60;79.80;;;;;;5071589;28;20430;-79
2021/10/28 19:05:21;;;;;;;9.70;7.18;;;13.60;79.80;;;;;;5068492;28;20049;-79
2021/10/28 19:07:47;;;;;;;10.18;7.60;;;13.60;79.80;;;;;;5070284;28;20032;-80
2021/10/28 19:10:13;;;;;;;8.05;6.30;;;13.50;79.90;;;;;;5071682;28;20540;-78
2021/10/28 19:12:43;;;;;;;12.35;7.97;;;13.50;79.90;;;;;;5061280;28;20036;-79
2021/10/28 19:15:09;;;;;;;9.45;7.03;;;13.50;80.00;;;;;;5063965;28;20025;-78
2021/10/28 19:17:35;;;;;;;8.88;6.93;;;13.50;79.90;;;;;;5064063;28;20112;-80
2021/10/28 19:20:05;;;;;;;9.18;7.30;;;13.50;80.00;;;;;;5069057;28;20056;-80
2021/10/28 19:22:33;;;;;;;9.35;6.93;;;13.40;79.90;;;;;;5069579;28;20024;-80
2021/10/28 19:25:01;;;;;;;9.25;7.60;;;13.40;80.00;;;;;;5068123;28;20416;-78
2021/10/28 19:27:27;;;;;;;10.98;8.32;;;13.40;80.10;;;;;;5063453;28;21286;-80
2021/10/28 19:30:02;;;;;;;8.63;6.30;;;13.30;80.20;;;;;;5062858;28;20027;-81
2021/10/28 19:32:29;;;;;;;10.25;7.55;;;13.40;80.10;;;;;;5066398;28;20127;-82
2021/10/28 19:34:55;;;;;;;8.57;6.38;;;13.40;80.10;;;;;;5069619;28;20027;-82
2021/10/28 19:47:39;;;;;;;9.20;6.90;;;13.30;80.00;;;;;;5068407;28;20398;-80
2021/10/28 19:50:06;;;;;;;9.18;7.05;;;13.30;80.70;;;;;;5069002;28;20036;-80
2021/10/28 19:52:32;;;;;;;9.73;7.25;;;13.20;80.20;;;;;;5067750;28;20518;-82
2021/10/28 19:55:03;;;;;;;9.00;6.70;;;13.20;80.20;;;;;;5070515;28;20046;-79
2021/10/28 19:57:31;;;;;;;8.65;6.50;;;13.20;80.30;;;;;;5073055;28;20020;-80
2021/10/28 20:00:04;;;;;;;9.15;6.15;;;13.20;80.20;;;;;;5065205;28;20029;-81
2021/10/28 20:08:03;;;;;;;9.50;6.85;;;13.10;80.20;;;;;;5066844;28;20107;-80
2021/10/28 20:13:24;;;;;;;12.55;8.00;;;13.10;80.30;;;;;;5062543;28;20039;-81
2021/10/28 20:20:04;;;;;;;11.50;8.25;;;13.00;80.30;;;;;;5065816;28;20028;-81
2021/10/28 20:21:35;;;;;;;10.27;7.00;;;13.00;80.40;;;;;;5065931;28;20548;-81
2021/10/28 20:24:01;;;;;;;11.20;8.13;;;12.90;80.40;;;;;;5068132;28;20027;-81
2021/10/28 20:26:27;;;;;;;11.05;8.18;;;12.90;81.00;;;;;;5067805;28;20028;-80
2021/10/28 20:28:54;;;;;;;8.55;6.63;;;12.90;80.30;;;;;;5068482;28;20054;-78
2021/10/28 20:31:21;;;;;;;11.43;8.55;;;12.90;80.40;;;;;;5064662;28;20135;-78
2021/10/28 20:33:52;;;;;;;10.38;7.00;;;12.90;80.40;;;;;;5067878;28;20059;-78
2021/10/28 20:38:54;;;;;;;8.70;6.30;;;12.80;80.30;;;;;;5072126;28;20040;-79
2021/10/28 20:41:20;;;;;;;8.48;6.53;;;12.80;80.30;;;;;;5070482;28;20056;-79
2021/10/28 20:43:45;;;;;;;8.90;6.47;;;12.80;80.30;;;;;;5070384;28;20505;-80
2021/10/28 20:46:18;;;;;;;11.00;8.10;;;12.80;80.20;;;;;;5069992;28;20029;-80
2021/10/28 20:48:44;;;;;;;7.72;5.97;;;12.70;80.30;;;;;;5078274;28;20020;-80
2021/10/28 20:51:10;;;;;;;7.65;5.95;;;12.80;80.40;;;;;;5062233;28;20112;-80
2021/10/28 20:53:35;;;;;;;9.18;6.65;;;12.70;80.30;;;;;;5070644;28;20036;-79
2021/10/28 20:56:01;;;;;;;8.65;6.60;;;12.70;80.20;;;;;;5060529;28;20051;-81
2021/10/28 20:58:27;;;;;;;7.93;5.88;;;12.70;80.30;;;;;;5071715;28;20028;-81
2021/10/28 21:00:53;;;;;;;9.07;7.47;;;12.70;80.30;;;;;;5071677;28;20039;-79
2021/10/28 21:03:18;;;;;;;10.18;7.97;;;12.60;80.20;;;;;;5080010;28;20079;-79
2021/10/28 21:05:44;;;;;;;9.10;6.65;;;12.60;80.40;;;;;;5080115;28;20024;-82
2021/10/28 21:08:10;;;;;;;9.02;7.22;;;12.60;80.50;;;;;;5070994;28;20036;-82
2021/10/28 21:10:37;;;;;;;9.48;7.18;;;12.50;80.40;;;;;;5061540;28;20028;-82
2021/10/28 21:13:02;;;;;;;7.70;5.65;;;12.50;80.50;;;;;;5053363;28;20148;-82
2021/10/28 21:15:28;;;;;;;10.68;7.75;;;12.50;80.50;;;;;;5062573;28;20095;-80
2021/10/28 21:17:54;;;;;;;11.43;8.27;;;12.50;80.50;;;;;;5067170;28;20032;-81
2021/10/28 21:20:21;;;;;;;10.05;7.28;;;12.50;80.60;;;;;;5069129;28;20094;-81
2021/10/28 21:22:47;;;;;;;13.82;9.05;;;12.40;80.60;;;;;;5064679;28;20377;-80
2021/10/28 21:25:12;;;;;;;10.80;7.50;;;12.40;80.60;;;;;;5061039;28;20073;-81
2021/10/28 21:27:39;;;;;;;7.18;5.35;;;12.30;80.70;;;;;;5072455;28;20028;-80
2021/10/28 21:30:08;;;;;;;9.13;6.85;;;12.30;80.70;;;;;;5061510;28;20390;-79
2021/10/28 21:32:34;;;;;;;10.32;7.32;;;12.30;80.70;;;;;;5068026;28;20058;-81
2021/10/28 21:35:00;;;;;;;9.10;6.50;;;12.30;80.70;;;;;;5068391;28;20099;-81
2021/10/28 21:37:26;;;;;;;10.82;8.05;;;12.30;80.60;;;;;;5068703;28;20038;-81